Terminal Aerodrome Forecast
Issued by NWS

Home | Current Version | Previous Version | Text Only | Print | Product List | Glossary On
Versions: 1 2 3 4 5 6 7 8 9 10 11 12 13 14 15 16 17 18 19 20 21 22 23 24 25 26 27 28
000
FTUS41 KBUF 270534
TAFIAG
TAF
KIAG 270534Z 2706/2806 20004KT P6SM BKN250
     FM271500 24004KT P6SM BKN200
     FM280100 17004KT P6SM BKN110
     FM280500 22004KT P6SM BKN130=

USA.gov is the U.S. government's official web portal to all federal, state and local government web resources and services.